Terminal Aerodrome Forecast
Issued by NWS Houston/Galveston, TX

Home | Current Version | Previous Version | Text Only | Print | Product List | Glossary On
Versions: 1 2 3 4 5 6 7 8 9 10 11 12 13 14 15 16 17
000
FTUS44 KHGX 250550 RRA
TAFCLL
TAF
KCLL 250550Z 2506/2606 33007KT P6SM BKN040
      TEMPO 2511/2513 6SM BR
     FM251500 09008KT P6SM FEW250
     FM252100 13006KT P6SM SKC=

USA.gov is the U.S. government's official web portal to all federal, state and local government web resources and services.